sensor_id;sensor_type;location;lat;lon;timestamp;temperature;humidity
73141;SHT31;61339;50.558;4.696;2023-09-18T00:00:09;21.36;79.74
73141;SHT31;61339;50.558;4.696;2023-09-18T00:02:38;21.37;79.74
73141;SHT31;61339;50.558;4.696;2023-09-18T00:05:06;21.37;79.83
73141;SHT31;61339;50.558;4.696;2023-09-18T00:07:32;21.37;79.77
73141;SHT31;61339;50.558;4.696;2023-09-18T00:09:57;21.36;79.77
73141;SHT31;61339;50.558;4.696;2023-09-18T00:12:23;21.33;79.83
73141;SHT31;61339;50.558;4.696;2023-09-18T00:14:49;21.30;79.75
73141;SHT31;61339;50.558;4.696;2023-09-18T00:17:15;21.30;79.85
73141;SHT31;61339;50.558;4.696;2023-09-18T00:19:42;21.30;79.75
73141;SHT31;61339;50.558;4.696;2023-09-18T00:22:08;21.30;79.81
73141;SHT31;61339;50.558;4.696;2023-09-18T00:24:33;21.29;79.87
73141;SHT31;61339;50.558;4.696;2023-09-18T00:26:59;21.29;79.89
73141;SHT31;61339;50.558;4.696;2023-09-18T00:29:24;21.34;79.63
73141;SHT31;61339;50.558;4.696;2023-09-18T00:31:50;21.32;79.65
73141;SHT31;61339;50.558;4.696;2023-09-18T00:34:18;21.32;79.75
73141;SHT31;61339;50.558;4.696;2023-09-18T00:36:43;21.27;79.76
73141;SHT31;61339;50.558;4.696;2023-09-18T00:39:09;21.26;79.66
73141;SHT31;61339;50.558;4.696;2023-09-18T00:41:36;21.33;79.61
73141;SHT31;61339;50.558;4.696;2023-09-18T00:44:01;21.29;79.97
73141;SHT31;61339;50.558;4.696;2023-09-18T00:46:27;21.26;80.15
73141;SHT31;61339;50.558;4.696;2023-09-18T00:48:55;21.23;80.48
73141;SHT31;61339;50.558;4.696;2023-09-18T00:51:21;21.19;80.87
73141;SHT31;61339;50.558;4.696;2023-09-18T00:53:47;21.15;81.36
73141;SHT31;61339;50.558;4.696;2023-09-18T00:56:16;21.07;82.26
73141;SHT31;61339;50.558;4.696;2023-09-18T00:58:43;21.05;83.16
73141;SHT31;61339;50.558;4.696;2023-09-18T01:01:11;20.95;84.70
73141;SHT31;61339;50.558;4.696;2023-09-18T01:03:39;20.85;86.77
73141;SHT31;61339;50.558;4.696;2023-09-18T01:06:05;20.74;87.67
73141;SHT31;61339;50.558;4.696;2023-09-18T01:08:30;20.64;88.57
73141;SHT31;61339;50.558;4.696;2023-09-18T01:11:09;20.58;89.65
73141;SHT31;61339;50.558;4.696;2023-09-18T01:13:37;20.45;89.97
73141;SHT31;61339;50.558;4.696;2023-09-18T01:16:24;20.34;90.23
73141;SHT31;61339;50.558;4.696;2023-09-18T01:18:51;20.24;91.09
73141;SHT31;61339;50.558;4.696;2023-09-18T01:21:19;20.13;90.53
73141;SHT31;61339;50.558;4.696;2023-09-18T01:23:48;20.01;90.65
73141;SHT31;61339;50.558;4.696;2023-09-18T01:26:16;19.93;91.06
73141;SHT31;61339;50.558;4.696;2023-09-18T01:28:42;19.89;91.12
73141;SHT31;61339;50.558;4.696;2023-09-18T01:31:12;19.80;91.71
73141;SHT31;61339;50.558;4.696;2023-09-18T01:33:53;19.72;92.17
73141;SHT31;61339;50.558;4.696;2023-09-18T01:36:24;19.67;92.48
73141;SHT31;61339;50.558;4.696;2023-09-18T01:38:52;19.67;92.63
73141;SHT31;61339;50.558;4.696;2023-09-18T01:41:19;19.69;92.77
73141;SHT31;61339;50.558;4.696;2023-09-18T01:43:44;19.70;92.87
73141;SHT31;61339;50.558;4.696;2023-09-18T01:46:11;19.69;93.04
73141;SHT31;61339;50.558;4.696;2023-09-18T01:48:36;19.72;93.04
73141;SHT31;61339;50.558;4.696;2023-09-18T01:51:03;19.75;93.09
73141;SHT31;61339;50.558;4.696;2023-09-18T01:53:28;19.75;93.13
73141;SHT31;61339;50.558;4.696;2023-09-18T01:55:56;19.75;93.21
73141;SHT31;61339;50.558;4.696;2023-09-18T01:58:21;19.75;93.37
73141;SHT31;61339;50.558;4.696;2023-09-18T02:00:49;19.77;93.44
73141;SHT31;61339;50.558;4.696;2023-09-18T02:03:14;19.73;93.43
73141;SHT31;61339;50.558;4.696;2023-09-18T02:05:43;19.77;93.61
73141;SHT31;61339;50.558;4.696;2023-09-18T02:08:09;19.69;93.55
73141;SHT31;61339;50.558;4.696;2023-09-18T02:10:45;19.63;93.47
73141;SHT31;61339;50.558;4.696;2023-09-18T02:13:14;19.61;93.84
73141;SHT31;61339;50.558;4.696;2023-09-18T02:15:39;19.56;93.82
73141;SHT31;61339;50.558;4.696;2023-09-18T02:18:05;19.56;94.16
73141;SHT31;61339;50.558;4.696;2023-09-18T02:20:42;19.48;94.22
73141;SHT31;61339;50.558;4.696;2023-09-18T02:23:17;19.41;94.41
73141;SHT31;61339;50.558;4.696;2023-09-18T02:25:44;19.38;94.58
73141;SHT31;61339;50.558;4.696;2023-09-18T02:28:17;19.35;94.38
73141;SHT31;61339;50.558;4.696;2023-09-18T02:30:42;19.32;94.50
73141;SHT31;61339;50.558;4.696;2023-09-18T02:33:10;19.29;94.49
73141;SHT31;61339;50.558;4.696;2023-09-18T02:35:35;19.25;94.62
73141;SHT31;61339;50.558;4.696;2023-09-18T02:38:04;19.19;94.59
73141;SHT31;61339;50.558;4.696;2023-09-18T02:40:32;19.22;94.72
73141;SHT31;61339;50.558;4.696;2023-09-18T02:42:57;19.14;94.44
73141;SHT31;61339;50.558;4.696;2023-09-18T02:45:23;19.07;94.64
73141;SHT31;61339;50.558;4.696;2023-09-18T02:47:48;19.00;94.26
73141;SHT31;61339;50.558;4.696;2023-09-18T02:50:14;18.94;94.34
73141;SHT31;61339;50.558;4.696;2023-09-18T02:52:39;18.90;94.45
73141;SHT31;61339;50.558;4.696;2023-09-18T02:55:05;18.88;94.34
73141;SHT31;61339;50.558;4.696;2023-09-18T02:57:33;18.90;94.56
73141;SHT31;61339;50.558;4.696;2023-09-18T03:00:01;18.91;94.60
73141;SHT31;61339;50.558;4.696;2023-09-18T03:02:32;18.86;94.38
73141;SHT31;61339;50.558;4.696;2023-09-18T03:04:57;18.78;94.07
73141;SHT31;61339;50.558;4.696;2023-09-18T03:07:23;18.77;94.26
73141;SHT31;61339;50.558;4.696;2023-09-18T03:09:48;18.73;94.25
73141;SHT31;61339;50.558;4.696;2023-09-18T03:12:16;18.76;94.24
73141;SHT31;61339;50.558;4.696;2023-09-18T03:14:41;18.74;94.22
73141;SHT31;61339;50.558;4.696;2023-09-18T03:17:09;18.70;94.17
73141;SHT31;61339;50.558;4.696;2023-09-18T03:19:35;18.70;94.21
73141;SHT31;61339;50.558;4.696;2023-09-18T03:22:01;18.68;94.29
73141;SHT31;61339;50.558;4.696;2023-09-18T03:24:26;18.71;94.30
73141;SHT31;61339;50.558;4.696;2023-09-18T03:26:52;18.73;94.22
73141;SHT31;61339;50.558;4.696;2023-09-18T03:29:17;18.68;94.12
73141;SHT31;61339;50.558;4.696;2023-09-18T03:31:43;18.64;94.00
73141;SHT31;61339;50.558;4.696;2023-09-18T03:34:09;18.61;94.02
73141;SHT31;61339;50.558;4.696;2023-09-18T03:36:34;18.63;93.91
73141;SHT31;61339;50.558;4.696;2023-09-18T03:39:01;18.66;94.01
73141;SHT31;61339;50.558;4.696;2023-09-18T03:41:27;18.63;93.70
73141;SHT31;61339;50.558;4.696;2023-09-18T03:44:02;18.61;93.72
73141;SHT31;61339;50.558;4.696;2023-09-18T03:46:28;18.60;93.65
73141;SHT31;61339;50.558;4.696;2023-09-18T03:48:55;18.59;93.64
73141;SHT31;61339;50.558;4.696;2023-09-18T03:51:23;18.60;93.47
73141;SHT31;61339;50.558;4.696;2023-09-18T03:53:49;18.57;93.67
73141;SHT31;61339;50.558;4.696;2023-09-18T03:56:17;18.61;93.37
73141;SHT31;61339;50.558;4.696;2023-09-18T03:58:42;18.59;93.40
73141;SHT31;61339;50.558;4.696;2023-09-18T04:01:18;18.57;93.15
73141;SHT31;61339;50.558;4.696;2023-09-18T04:03:44;18.56;93.45
73141;SHT31;61339;50.558;4.696;2023-09-18T04:06:09;18.56;93.39
73141;SHT31;61339;50.558;4.696;2023-09-18T04:08:35;18.53;93.19
73141;SHT31;61339;50.558;4.696;2023-09-18T04:11:00;18.55;93.52
73141;SHT31;61339;50.558;4.696;2023-09-18T04:13:26;18.55;93.31
73141;SHT31;61339;50.558;4.696;2023-09-18T04:15:52;18.55;93.52
73141;SHT31;61339;50.558;4.696;2023-09-18T04:18:22;18.50;93.48
73141;SHT31;61339;50.558;4.696;2023-09-18T04:20:48;18.50;93.32
73141;SHT31;61339;50.558;4.696;2023-09-18T04:23:26;18.49;93.28
73141;SHT31;61339;50.558;4.696;2023-09-18T04:25:53;18.52;93.57
73141;SHT31;61339;50.558;4.696;2023-09-18T04:28:22;18.50;93.61
73141;SHT31;61339;50.558;4.696;2023-09-18T04:30:47;18.49;93.63
73141;SHT31;61339;50.558;4.696;2023-09-18T04:33:14;18.45;93.51
73141;SHT31;61339;50.558;4.696;2023-09-18T04:35:40;18.45;93.61
73141;SHT31;61339;50.558;4.696;2023-09-18T04:38:07;18.39;93.58
73141;SHT31;61339;50.558;4.696;2023-09-18T04:40:33;18.35;93.75
73141;SHT31;61339;50.558;4.696;2023-09-18T04:43:00;18.29;93.55
73141;SHT31;61339;50.558;4.696;2023-09-18T04:45:25;18.29;93.54
73141;SHT31;61339;50.558;4.696;2023-09-18T04:47:52;18.24;93.41
73141;SHT31;61339;50.558;4.696;2023-09-18T04:50:17;18.21;93.75
73141;SHT31;61339;50.558;4.696;2023-09-18T04:52:43;18.21;93.77
73141;SHT31;61339;50.558;4.696;2023-09-18T04:55:10;18.15;93.46
73141;SHT31;61339;50.558;4.696;2023-09-18T04:57:37;18.16;93.85
73141;SHT31;61339;50.558;4.696;2023-09-18T05:00:03;18.15;93.49
73141;SHT31;61339;50.558;4.696;2023-09-18T05:02:33;18.18;93.06
73141;SHT31;61339;50.558;4.696;2023-09-18T05:05:00;18.13;93.39
73141;SHT31;61339;50.558;4.696;2023-09-18T05:07:25;18.13;93.33
73141;SHT31;61339;50.558;4.696;2023-09-18T05:09:51;18.15;93.55
73141;SHT31;61339;50.558;4.696;2023-09-18T05:12:16;18.13;93.29
73141;SHT31;61339;50.558;4.696;2023-09-18T05:14:43;18.13;93.27
73141;SHT31;61339;50.558;4.696;2023-09-18T05:17:15;18.10;93.25
73141;SHT31;61339;50.558;4.696;2023-09-18T05:19:42;18.12;93.41
73141;SHT31;61339;50.558;4.696;2023-09-18T05:22:08;18.06;93.35
73141;SHT31;61339;50.558;4.696;2023-09-18T05:24:37;18.06;94.00
73141;SHT31;61339;50.558;4.696;2023-09-18T05:27:03;18.04;93.42
73141;SHT31;61339;50.558;4.696;2023-09-18T05:29:31;18.02;93.25
73141;SHT31;61339;50.558;4.696;2023-09-18T05:31:56;18.02;93.43
73141;SHT31;61339;50.558;4.696;2023-09-18T05:34:22;17.99;93.12
73141;SHT31;61339;50.558;4.696;2023-09-18T05:36:47;17.98;93.03
73141;SHT31;61339;50.558;4.696;2023-09-18T05:39:14;18.01;92.74
73141;SHT31;61339;50.558;4.696;2023-09-18T05:41:41;17.97;93.05
73141;SHT31;61339;50.558;4.696;2023-09-18T05:44:08;17.98;92.89
73141;SHT31;61339;50.558;4.696;2023-09-18T05:46:35;17.97;92.98
73141;SHT31;61339;50.558;4.696;2023-09-18T05:49:00;17.94;93.06
73141;SHT31;61339;50.558;4.696;2023-09-18T05:51:29;17.92;92.57
73141;SHT31;61339;50.558;4.696;2023-09-18T05:54:00;17.94;92.90
73141;SHT31;61339;50.558;4.696;2023-09-18T05:56:30;17.94;92.65
73141;SHT31;61339;50.558;4.696;2023-09-18T05:58:59;17.91;92.30
73141;SHT31;61339;50.558;4.696;2023-09-18T06:01:28;17.91;92.92
73141;SHT31;61339;50.558;4.696;2023-09-18T06:03:53;17.91;92.78
73141;SHT31;61339;50.558;4.696;2023-09-18T06:06:19;17.92;92.94
73141;SHT31;61339;50.558;4.696;2023-09-18T06:08:44;17.97;92.88
73141;SHT31;61339;50.558;4.696;2023-09-18T06:11:10;17.98;92.69
73141;SHT31;61339;50.558;4.696;2023-09-18T06:13:35;17.99;92.41
73141;SHT31;61339;50.558;4.696;2023-09-18T06:16:01;18.01;92.63
73141;SHT31;61339;50.558;4.696;2023-09-18T06:18:32;18.01;92.67
73141;SHT31;61339;50.558;4.696;2023-09-18T06:20:59;18.04;92.76
73141;SHT31;61339;50.558;4.696;2023-09-18T06:23:24;18.04;92.79
73141;SHT31;61339;50.558;4.696;2023-09-18T06:25:50;18.06;92.26
73141;SHT31;61339;50.558;4.696;2023-09-18T06:28:21;18.05;92.50
73141;SHT31;61339;50.558;4.696;2023-09-18T06:30:47;18.06;92.53
73141;SHT31;61339;50.558;4.696;2023-09-18T06:33:13;18.06;92.29
73141;SHT31;61339;50.558;4.696;2023-09-18T06:35:39;18.12;92.20
73141;SHT31;61339;50.558;4.696;2023-09-18T06:38:05;18.12;92.45
73141;SHT31;61339;50.558;4.696;2023-09-18T06:40:31;18.16;91.95
73141;SHT31;61339;50.558;4.696;2023-09-18T06:43:00;18.15;91.61
73141;SHT31;61339;50.558;4.696;2023-09-18T06:45:25;18.22;91.45
73141;SHT31;61339;50.558;4.696;2023-09-18T06:47:52;18.25;91.40
73141;SHT31;61339;50.558;4.696;2023-09-18T06:50:18;18.21;91.17
73141;SHT31;61339;50.558;4.696;2023-09-18T06:52:45;18.24;91.45
73141;SHT31;61339;50.558;4.696;2023-09-18T06:55:11;18.26;90.29
73141;SHT31;61339;50.558;4.696;2023-09-18T06:57:36;18.30;91.28
73141;SHT31;61339;50.558;4.696;2023-09-18T07:00:02;18.36;89.99
73141;SHT31;61339;50.558;4.696;2023-09-18T07:02:28;18.40;90.65
73141;SHT31;61339;50.558;4.696;2023-09-18T07:04:54;18.45;90.06
73141;SHT31;61339;50.558;4.696;2023-09-18T07:07:19;18.43;89.47
73141;SHT31;61339;50.558;4.696;2023-09-18T07:09:50;18.46;89.82
73141;SHT31;61339;50.558;4.696;2023-09-18T07:12:16;18.45;89.31
73141;SHT31;61339;50.558;4.696;2023-09-18T07:14:45;18.45;89.35
73141;SHT31;61339;50.558;4.696;2023-09-18T07:17:10;18.46;89.17
73141;SHT31;61339;50.558;4.696;2023-09-18T07:19:36;18.49;88.97
73141;SHT31;61339;50.558;4.696;2023-09-18T07:22:01;18.50;89.00
73141;SHT31;61339;50.558;4.696;2023-09-18T07:24:27;18.46;89.15
73141;SHT31;61339;50.558;4.696;2023-09-18T07:26:54;18.55;88.28
73141;SHT31;61339;50.558;4.696;2023-09-18T07:29:20;18.70;87.18
73141;SHT31;61339;50.558;4.696;2023-09-18T07:31:46;19.12;86.32
73141;SHT31;61339;50.558;4.696;2023-09-18T07:34:13;20.49;81.38
73141;SHT31;61339;50.558;4.696;2023-09-18T07:36:39;21.44;78.43
73141;SHT31;61339;50.558;4.696;2023-09-18T07:39:05;22.28;75.38
73141;SHT31;61339;50.558;4.696;2023-09-18T07:41:31;22.33;73.25
73141;SHT31;61339;50.558;4.696;2023-09-18T07:43:57;22.33;73.95
73141;SHT31;61339;50.558;4.696;2023-09-18T07:46:24;22.59;72.76
73141;SHT31;61339;50.558;4.696;2023-09-18T07:48:49;22.76;72.12
73141;SHT31;61339;50.558;4.696;2023-09-18T07:51:15;23.14;70.97
73141;SHT31;61339;50.558;4.696;2023-09-18T07:53:43;23.59;68.78
73141;SHT31;61339;50.558;4.696;2023-09-18T07:56:11;23.58;68.28
73141;SHT31;61339;50.558;4.696;2023-09-18T07:58:37;23.25;69.49
73141;SHT31;61339;50.558;4.696;2023-09-18T08:01:04;23.51;68.85
73141;SHT31;61339;50.558;4.696;2023-09-18T08:03:31;23.78;67.47
73141;SHT31;61339;50.558;4.696;2023-09-18T08:05:56;24.84;64.46
73141;SHT31;61339;50.558;4.696;2023-09-18T08:08:22;25.36;62.15
73141;SHT31;61339;50.558;4.696;2023-09-18T08:10:49;25.60;60.76
73141;SHT31;61339;50.558;4.696;2023-09-18T08:13:15;26.16;59.43
73141;SHT31;61339;50.558;4.696;2023-09-18T08:15:41;26.86;58.28
73141;SHT31;61339;50.558;4.696;2023-09-18T08:18:07;26.41;58.47
73141;SHT31;61339;50.558;4.696;2023-09-18T08:20:32;26.55;58.51
73141;SHT31;61339;50.558;4.696;2023-09-18T08:22:58;26.69;57.62
73141;SHT31;61339;50.558;4.696;2023-09-18T08:25:26;26.89;55.84
73141;SHT31;61339;50.558;4.696;2023-09-18T08:27:53;25.98;58.81
73141;SHT31;61339;50.558;4.696;2023-09-18T08:30:19;25.35;61.06
73141;SHT31;61339;50.558;4.696;2023-09-18T08:32:48;24.61;62.29
73141;SHT31;61339;50.558;4.696;2023-09-18T08:35:14;24.72;62.37
73141;SHT31;61339;50.558;4.696;2023-09-18T08:37:41;24.31;63.16
73141;SHT31;61339;50.558;4.696;2023-09-18T08:40:11;24.49;63.31
73141;SHT31;61339;50.558;4.696;2023-09-18T08:42:41;25.38;60.56
73141;SHT31;61339;50.558;4.696;2023-09-18T08:45:10;25.46;60.04
73141;SHT31;61339;50.558;4.696;2023-09-18T08:47:39;25.73;59.30
73141;SHT31;61339;50.558;4.696;2023-09-18T08:50:06;24.61;61.72
73141;SHT31;61339;50.558;4.696;2023-09-18T08:52:35;24.40;62.61
73141;SHT31;61339;50.558;4.696;2023-09-18T08:55:01;24.99;60.42
73141;SHT31;61339;50.558;4.696;2023-09-18T08:57:27;24.65;61.48
73141;SHT31;61339;50.558;4.696;2023-09-18T08:59:54;24.08;63.13
73141;SHT31;61339;50.558;4.696;2023-09-18T09:02:19;24.10;63.71
73141;SHT31;61339;50.558;4.696;2023-09-18T09:04:45;25.50;60.31
73141;SHT31;61339;50.558;4.696;2023-09-18T09:07:10;26.37;57.43
73141;SHT31;61339;50.558;4.696;2023-09-18T09:09:36;25.51;59.16
73141;SHT31;61339;50.558;4.696;2023-09-18T09:12:01;24.80;61.33
73141;SHT31;61339;50.558;4.696;2023-09-18T09:14:27;24.46;62.25
73141;SHT31;61339;50.558;4.696;2023-09-18T09:16:56;24.88;61.67
73141;SHT31;61339;50.558;4.696;2023-09-18T09:19:32;24.19;62.95
73141;SHT31;61339;50.558;4.696;2023-09-18T09:22:01;23.71;64.80
73141;SHT31;61339;50.558;4.696;2023-09-18T09:24:43;24.09;63.74
73141;SHT31;61339;50.558;4.696;2023-09-18T09:27:09;25.71;59.00
73141;SHT31;61339;50.558;4.696;2023-09-18T09:29:37;25.05;60.38
73141;SHT31;61339;50.558;4.696;2023-09-18T09:32:16;25.67;58.77
73141;SHT31;61339;50.558;4.696;2023-09-18T09:34:43;25.08;60.53
73141;SHT31;61339;50.558;4.696;2023-09-18T09:37:09;24.41;61.79
73141;SHT31;61339;50.558;4.696;2023-09-18T09:39:51;25.15;60.64
73141;SHT31;61339;50.558;4.696;2023-09-18T09:42:18;24.94;60.91
73141;SHT31;61339;50.558;4.696;2023-09-18T09:44:47;24.91;60.97
73141;SHT31;61339;50.558;4.696;2023-09-18T09:47:13;24.54;61.95
73141;SHT31;61339;50.558;4.696;2023-09-18T09:49:47;23.98;63.76
73141;SHT31;61339;50.558;4.696;2023-09-18T09:52:18;23.62;64.77
73141;SHT31;61339;50.558;4.696;2023-09-18T09:54:47;23.38;66.02
73141;SHT31;61339;50.558;4.696;2023-09-18T09:57:13;23.32;66.08
73141;SHT31;61339;50.558;4.696;2023-09-18T09:59:38;23.25;66.80
73141;SHT31;61339;50.558;4.696;2023-09-18T10:02:07;24.60;63.16
73141;SHT31;61339;50.558;4.696;2023-09-18T10:04:35;24.41;63.67
73141;SHT31;61339;50.558;4.696;2023-09-18T10:07:08;24.44;63.60
73141;SHT31;61339;50.558;4.696;2023-09-18T10:09:35;24.09;64.65
73141;SHT31;61339;50.558;4.696;2023-09-18T10:12:03;23.83;64.59
73141;SHT31;61339;50.558;4.696;2023-09-18T10:14:33;23.52;64.95
73141;SHT31;61339;50.558;4.696;2023-09-18T10:17:11;23.61;65.05
73141;SHT31;61339;50.558;4.696;2023-09-18T10:19:45;23.45;65.55
73141;SHT31;61339;50.558;4.696;2023-09-18T10:24:50;24.33;62.70
73141;SHT31;61339;50.558;4.696;2023-09-18T10:27:16;24.71;61.63
73141;SHT31;61339;50.558;4.696;2023-09-18T10:29:43;26.13;57.46
73141;SHT31;61339;50.558;4.696;2023-09-18T10:32:11;27.41;53.71
73141;SHT31;61339;50.558;4.696;2023-09-18T10:34:37;26.28;55.49
73141;SHT31;61339;50.558;4.696;2023-09-18T10:37:04;27.65;52.94
73141;SHT31;61339;50.558;4.696;2023-09-18T10:39:37;28.37;51.37
73141;SHT31;61339;50.558;4.696;2023-09-18T10:42:07;28.25;50.72
73141;SHT31;61339;50.558;4.696;2023-09-18T10:44:33;27.03;53.22
73141;SHT31;61339;50.558;4.696;2023-09-18T10:47:01;26.51;53.30
73141;SHT31;61339;50.558;4.696;2023-09-18T10:49:28;25.51;55.06
73141;SHT31;61339;50.558;4.696;2023-09-18T10:51:55;25.23;56.25
73141;SHT31;61339;50.558;4.696;2023-09-18T10:54:25;26.13;53.52
73141;SHT31;61339;50.558;4.696;2023-09-18T10:56:51;26.92;52.14
73141;SHT31;61339;50.558;4.696;2023-09-18T10:59:17;28.84;47.81
73141;SHT31;61339;50.558;4.696;2023-09-18T11:01:44;29.82;45.63
73141;SHT31;61339;50.558;4.696;2023-09-18T11:04:10;29.51;45.85
73141;SHT31;61339;50.558;4.696;2023-09-18T11:09:26;31.43;42.49
73141;SHT31;61339;50.558;4.696;2023-09-18T11:12:15;32.80;40.16
73141;SHT31;61339;50.558;4.696;2023-09-18T11:14:58;33.43;37.48
73141;SHT31;61339;50.558;4.696;2023-09-18T11:17:39;33.75;37.17
73141;SHT31;61339;50.558;4.696;2023-09-18T11:20:10;33.84;36.74
73141;SHT31;61339;50.558;4.696;2023-09-18T11:22:49;33.23;37.26
73141;SHT31;61339;50.558;4.696;2023-09-18T11:25:41;32.18;39.38
73141;SHT31;61339;50.558;4.696;2023-09-18T11:28:12;30.96;41.58
73141;SHT31;61339;50.558;4.696;2023-09-18T11:30:49;30.93;41.90
73141;SHT31;61339;50.558;4.696;2023-09-18T11:33:29;32.58;38.89
73141;SHT31;61339;50.558;4.696;2023-09-18T11:35:55;33.48;37.51
73141;SHT31;61339;50.558;4.696;2023-09-18T11:38:21;32.91;37.91
73141;SHT31;61339;50.558;4.696;2023-09-18T11:40:48;33.89;36.45
73141;SHT31;61339;50.558;4.696;2023-09-18T11:43:22;34.91;35.21
73141;SHT31;61339;50.558;4.696;2023-09-18T11:45:52;34.54;35.73
73141;SHT31;61339;50.558;4.696;2023-09-18T11:48:19;35.17;34.31
73141;SHT31;61339;50.558;4.696;2023-09-18T11:50:45;33.81;36.30
73141;SHT31;61339;50.558;4.696;2023-09-18T11:53:14;32.52;39.04
73141;SHT31;61339;50.558;4.696;2023-09-18T11:55:40;33.99;36.70
73141;SHT31;61339;50.558;4.696;2023-09-18T11:58:06;32.36;38.51
73141;SHT31;61339;50.558;4.696;2023-09-18T12:00:32;33.04;36.98
73141;SHT31;61339;50.558;4.696;2023-09-18T12:02:57;34.49;35.24
73141;SHT31;61339;50.558;4.696;2023-09-18T12:05:23;35.55;34.00
73141;SHT31;61339;50.558;4.696;2023-09-18T12:07:51;35.99;32.74
73141;SHT31;61339;50.558;4.696;2023-09-18T12:10:19;36.82;31.80
73141;SHT31;61339;50.558;4.696;2023-09-18T12:12:46;37.30;31.03
73141;SHT31;61339;50.558;4.696;2023-09-18T12:15:13;37.50;30.97
73141;SHT31;61339;50.558;4.696;2023-09-18T12:17:40;37.45;31.03
73141;SHT31;61339;50.558;4.696;2023-09-18T12:20:06;35.49;33.80
73141;SHT31;61339;50.558;4.696;2023-09-18T12:22:31;36.43;32.30
73141;SHT31;61339;50.558;4.696;2023-09-18T12:25:14;37.18;30.86
73141;SHT31;61339;50.558;4.696;2023-09-18T12:27:41;37.53;30.35
73141;SHT31;61339;50.558;4.696;2023-09-18T12:30:07;37.65;30.41
73141;SHT31;61339;50.558;4.696;2023-09-18T12:32:36;37.87;30.48
73141;SHT31;61339;50.558;4.696;2023-09-18T12:35:02;37.35;30.23
73141;SHT31;61339;50.558;4.696;2023-09-18T12:37:32;37.40;30.18
73141;SHT31;61339;50.558;4.696;2023-09-18T12:39:58;35.89;31.47
73141;SHT31;61339;50.558;4.696;2023-09-18T12:42:23;36.21;31.41
73141;SHT31;61339;50.558;4.696;2023-09-18T12:44:50;34.70;33.61
73141;SHT31;61339;50.558;4.696;2023-09-18T12:47:17;32.77;35.81
73141;SHT31;61339;50.558;4.696;2023-09-18T12:49:42;32.48;36.32
73141;SHT31;61339;50.558;4.696;2023-09-18T12:52:08;31.69;37.46
73141;SHT31;61339;50.558;4.696;2023-09-18T12:54:40;32.73;36.34
73141;SHT31;61339;50.558;4.696;2023-09-18T12:57:08;34.20;34.17
73141;SHT31;61339;50.558;4.696;2023-09-18T12:59:37;34.20;34.21
73141;SHT31;61339;50.558;4.696;2023-09-18T13:02:06;32.72;35.74
73141;SHT31;61339;50.558;4.696;2023-09-18T13:04:36;32.89;35.43
73141;SHT31;61339;50.558;4.696;2023-09-18T13:07:06;33.51;35.16
73141;SHT31;61339;50.558;4.696;2023-09-18T13:09:32;34.27;33.09
73141;SHT31;61339;50.558;4.696;2023-09-18T13:11:58;33.50;33.86
73141;SHT31;61339;50.558;4.696;2023-09-18T13:14:24;33.85;32.93
73141;SHT31;61339;50.558;4.696;2023-09-18T13:16:51;33.74;33.72
73141;SHT31;61339;50.558;4.696;2023-09-18T13:19:17;33.89;33.60
73141;SHT31;61339;50.558;4.696;2023-09-18T13:21:47;33.85;33.32
73141;SHT31;61339;50.558;4.696;2023-09-18T13:24:29;32.28;35.44
73141;SHT31;61339;50.558;4.696;2023-09-18T13:26:55;31.59;36.88
73141;SHT31;61339;50.558;4.696;2023-09-18T13:29:23;30.98;37.59
73141;SHT31;61339;50.558;4.696;2023-09-18T13:31:48;30.30;38.72
73141;SHT31;61339;50.558;4.696;2023-09-18T13:34:15;29.74;39.62
73141;SHT31;61339;50.558;4.696;2023-09-18T13:36:44;29.39;40.15
73141;SHT31;61339;50.558;4.696;2023-09-18T13:39:10;28.52;41.54
73141;SHT31;61339;50.558;4.696;2023-09-18T13:41:36;28.20;43.03
73141;SHT31;61339;50.558;4.696;2023-09-18T13:44:02;28.23;43.20
73141;SHT31;61339;50.558;4.696;2023-09-18T13:46:27;28.40;42.82
73141;SHT31;61339;50.558;4.696;2023-09-18T13:48:53;28.15;43.35
73141;SHT31;61339;50.558;4.696;2023-09-18T13:51:19;28.05;43.40
73141;SHT31;61339;50.558;4.696;2023-09-18T13:53:44;27.91;43.44
73141;SHT31;61339;50.558;4.696;2023-09-18T13:56:19;27.41;44.19
73141;SHT31;61339;50.558;4.696;2023-09-18T13:58:47;27.18;44.72
73141;SHT31;61339;50.558;4.696;2023-09-18T14:01:13;26.76;45.04
73141;SHT31;61339;50.558;4.696;2023-09-18T14:03:41;26.56;46.31
73141;SHT31;61339;50.558;4.696;2023-09-18T14:06:11;26.37;46.36
73141;SHT31;61339;50.558;4.696;2023-09-18T14:08:40;26.22;47.01
73141;SHT31;61339;50.558;4.696;2023-09-18T14:11:05;26.28;47.12
73141;SHT31;61339;50.558;4.696;2023-09-18T14:13:32;26.34;46.70
73141;SHT31;61339;50.558;4.696;2023-09-18T14:15:58;26.24;47.09
73141;SHT31;61339;50.558;4.696;2023-09-18T14:18:25;26.21;47.22
73141;SHT31;61339;50.558;4.696;2023-09-18T14:20:50;26.13;47.54
73141;SHT31;61339;50.558;4.696;2023-09-18T14:23:16;26.16;47.33
73141;SHT31;61339;50.558;4.696;2023-09-18T14:25:42;26.17;47.48
73141;SHT31;61339;50.558;4.696;2023-09-18T14:28:08;26.16;47.33
73141;SHT31;61339;50.558;4.696;2023-09-18T14:30:34;25.88;46.86
73141;SHT31;61339;50.558;4.696;2023-09-18T14:32:59;25.76;47.61
73141;SHT31;61339;50.558;4.696;2023-09-18T14:35:26;25.77;47.83
73141;SHT31;61339;50.558;4.696;2023-09-18T14:37:52;25.76;48.29
73141;SHT31;61339;50.558;4.696;2023-09-18T14:40:18;25.88;48.32
73141;SHT31;61339;50.558;4.696;2023-09-18T14:42:46;25.96;48.02
73141;SHT31;61339;50.558;4.696;2023-09-18T14:45:11;25.79;47.80
73141;SHT31;61339;50.558;4.696;2023-09-18T14:47:38;25.69;47.90
73141;SHT31;61339;50.558;4.696;2023-09-18T14:50:04;25.56;48.57
73141;SHT31;61339;50.558;4.696;2023-09-18T14:52:29;25.38;48.97
73141;SHT31;61339;50.558;4.696;2023-09-18T14:54:55;25.11;50.17
73141;SHT31;61339;50.558;4.696;2023-09-18T14:57:22;24.98;49.67
73141;SHT31;61339;50.558;4.696;2023-09-18T14:59:47;24.85;53.01
73141;SHT31;61339;50.558;4.696;2023-09-18T15:02:13;24.63;56.43
73141;SHT31;61339;50.558;4.696;2023-09-18T15:04:40;24.46;58.24
73141;SHT31;61339;50.558;4.696;2023-09-18T15:07:07;24.17;57.45
73141;SHT31;61339;50.558;4.696;2023-09-18T15:09:33;23.76;59.42
73141;SHT31;61339;50.558;4.696;2023-09-18T15:11:58;23.55;60.64
73141;SHT31;61339;50.558;4.696;2023-09-18T15:14:23;23.44;61.50
73141;SHT31;61339;50.558;4.696;2023-09-18T15:16:51;23.41;62.13
73141;SHT31;61339;50.558;4.696;2023-09-18T15:19:16;23.50;62.22
73141;SHT31;61339;50.558;4.696;2023-09-18T15:21:42;23.41;63.84
73141;SHT31;61339;50.558;4.696;2023-09-18T15:24:09;23.35;63.38
73141;SHT31;61339;50.558;4.696;2023-09-18T15:26:34;23.40;63.13
73141;SHT31;61339;50.558;4.696;2023-09-18T15:29:00;23.42;63.43
73141;SHT31;61339;50.558;4.696;2023-09-18T15:31:26;23.44;63.19
73141;SHT31;61339;50.558;4.696;2023-09-18T15:33:51;23.41;63.41
73141;SHT31;61339;50.558;4.696;2023-09-18T15:36:20;23.28;63.52